sensor_id;sensor_type;location;lat;lon;timestamp;pressure;altitude;pressure_sealevel;temperature;humidity
40850;BME280;26571;41.610;25.380;2022-07-09T00:00:47;97953.28;;;20.52;80.28
40850;BME280;26571;41.610;25.380;2022-07-09T00:03:13;97892.63;;;20.24;80.64
40850;BME280;26571;41.610;25.380;2022-07-09T00:05:38;97928.31;;;20.46;81.01
40850;BME280;26571;41.610;25.380;2022-07-09T00:08:04;97918.09;;;20.43;81.24
40850;BME280;26571;41.610;25.380;2022-07-09T00:10:29;97917.16;;;20.49;80.92
40850;BME280;26571;41.610;25.380;2022-07-09T00:12:55;97914.94;;;20.46;80.45
40850;BME280;26571;41.610;25.380;2022-07-09T00:15:20;97921.13;;;20.47;80.62
40850;BME280;26571;41.610;25.380;2022-07-09T00:17:46;97918.09;;;20.43;80.58
40850;BME280;26571;41.610;25.380;2022-07-09T00:20:11;97926.09;;;20.43;80.15
40850;BME280;26571;41.610;25.380;2022-07-09T00:22:37;97923.94;;;20.40;80.26
40850;BME280;26571;41.610;25.380;2022-07-09T00:25:02;97894.09;;;20.14;80.43
40850;BME280;26571;41.610;25.380;2022-07-09T00:27:28;97921.66;;;20.32;80.31
40850;BME280;26571;41.610;25.380;2022-07-09T00:29:53;97928.59;;;20.33;80.58
40850;BME280;26571;41.610;25.380;2022-07-09T00:32:19;97933.97;;;20.33;81.01
40850;BME280;26571;41.610;25.380;2022-07-09T00:34:45;97915.16;;;20.28;80.85
40850;BME280;26571;41.610;25.380;2022-07-09T00:37:11;97929.47;;;20.50;81.28
40850;BME280;26571;41.610;25.380;2022-07-09T00:39:37;97919.41;;;20.57;81.21
40850;BME280;26571;41.610;25.380;2022-07-09T00:42:07;97924.63;;;20.64;81.30
40850;BME280;26571;41.610;25.380;2022-07-09T00:44:33;97902.03;;;20.43;80.69
40850;BME280;26571;41.610;25.380;2022-07-09T00:46:59;97915.63;;;20.70;81.01
40850;BME280;26571;41.610;25.380;2022-07-09T00:49:28;97924.88;;;20.79;80.36
40850;BME280;26571;41.610;25.380;2022-07-09T00:51:53;97927.28;;;20.81;79.86
40850;BME280;26571;41.610;25.380;2022-07-09T00:54:19;97926.88;;;20.89;80.35
40850;BME280;26571;41.610;25.380;2022-07-09T00:56:45;97921.03;;;20.92;79.71
40850;BME280;26571;41.610;25.380;2022-07-09T00:59:11;97921.09;;;20.97;79.22
40850;BME280;26571;41.610;25.380;2022-07-09T01:01:38;97915.75;;;20.97;78.64
40850;BME280;26571;41.610;25.380;2022-07-09T01:04:04;97921.03;;;20.92;79.01
40850;BME280;26571;41.610;25.380;2022-07-09T01:06:30;97898.41;;;20.83;78.77
40850;BME280;26571;41.610;25.380;2022-07-09T01:08:56;97926.53;;;21.02;78.53
40850;BME280;26571;41.610;25.380;2022-07-09T01:11:21;97916.41;;;21.04;78.80
40850;BME280;26571;41.610;25.380;2022-07-09T01:13:46;97881.06;;;20.85;79.00
40850;BME280;26571;41.610;25.380;2022-07-09T01:16:15;97916.47;;;21.09;78.73
40850;BME280;26571;41.610;25.380;2022-07-09T01:18:45;97921.56;;;21.11;78.90
40850;BME280;26571;41.610;25.380;2022-07-09T01:21:11;97917.03;;;21.11;78.71
40850;BME280;26571;41.610;25.380;2022-07-09T01:23:37;97919.22;;;21.14;78.33
40850;BME280;26571;41.610;25.380;2022-07-09T01:26:02;97901.88;;;21.00;78.12
40850;BME280;26571;41.610;25.380;2022-07-09T01:28:28;97913.22;;;21.07;77.53
40850;BME280;26571;41.610;25.380;2022-07-09T01:30:54;97921.97;;;21.03;77.89
40850;BME280;26571;41.610;25.380;2022-07-09T01:33:19;97920.88;;;20.99;78.03
40850;BME280;26571;41.610;25.380;2022-07-09T01:35:45;97922.22;;;21.01;78.26
40850;BME280;26571;41.610;25.380;2022-07-09T01:38:10;97912.91;;;21.04;78.64
40850;BME280;26571;41.610;25.380;2022-07-09T01:40:35;97910.31;;;21.09;78.88
40850;BME280;26571;41.610;25.380;2022-07-09T01:43:01;97915.09;;;21.07;78.92
40850;BME280;26571;41.610;25.380;2022-07-09T01:45:26;97904.69;;;21.10;79.02
40850;BME280;26571;41.610;25.380;2022-07-09T01:47:52;97909.25;;;21.10;78.58
40850;BME280;26571;41.610;25.380;2022-07-09T01:50:17;97909.47;;;21.08;78.73
40850;BME280;26571;41.610;25.380;2022-07-09T01:52:43;97905.63;;;20.99;78.30
40850;BME280;26571;41.610;25.380;2022-07-09T01:55:08;97906.59;;;20.93;78.27
40850;BME280;26571;41.610;25.380;2022-07-09T01:57:34;97892.19;;;20.77;78.57
40850;BME280;26571;41.610;25.380;2022-07-09T01:59:59;97899.31;;;20.88;79.69
40850;BME280;26571;41.610;25.380;2022-07-09T02:02:25;97881.00;;;20.80;80.33
40850;BME280;26571;41.610;25.380;2022-07-09T02:04:50;97902.88;;;20.94;80.61
40850;BME280;26571;41.610;25.380;2022-07-09T02:07:16;97899.69;;;20.97;80.46
40850;BME280;26571;41.610;25.380;2022-07-09T02:09:42;97901.63;;;21.02;80.15
40850;BME280;26571;41.610;25.380;2022-07-09T02:12:07;97890.03;;;20.96;80.44
40850;BME280;26571;41.610;25.380;2022-07-09T02:14:34;97896.53;;;21.00;79.08
40850;BME280;26571;41.610;25.380;2022-07-09T02:16:59;97885.63;;;20.85;78.87
40850;BME280;26571;41.610;25.380;2022-07-09T02:19:25;97873.38;;;20.89;79.67
40850;BME280;26571;41.610;25.380;2022-07-09T02:21:50;97875.44;;;21.04;79.59
40850;BME280;26571;41.610;25.380;2022-07-09T02:24:16;97866.22;;;20.95;79.82
40850;BME280;26571;41.610;25.380;2022-07-09T02:26:41;97877.00;;;21.00;78.43
40850;BME280;26571;41.610;25.380;2022-07-09T02:29:07;97879.41;;;21.01;78.89
40850;BME280;26571;41.610;25.380;2022-07-09T02:31:32;97861.16;;;20.98;79.17
40850;BME280;26571;41.610;25.380;2022-07-09T02:33:58;97877.53;;;21.02;79.04
40850;BME280;26571;41.610;25.380;2022-07-09T02:36:23;97881.28;;;21.01;78.73
40850;BME280;26571;41.610;25.380;2022-07-09T02:38:49;97879.97;;;21.03;77.82
40850;BME280;26571;41.610;25.380;2022-07-09T02:41:14;97874.63;;;21.03;77.10
40850;BME280;26571;41.610;25.380;2022-07-09T02:43:40;97874.94;;;21.07;78.40
40850;BME280;26571;41.610;25.380;2022-07-09T02:46:09;97858.88;;;21.07;77.60
40850;BME280;26571;41.610;25.380;2022-07-09T02:48:34;97867.16;;;21.05;78.51
40850;BME280;26571;41.610;25.380;2022-07-09T02:51:00;97862.22;;;20.97;78.57
40850;BME280;26571;41.610;25.380;2022-07-09T02:53:26;97856.72;;;21.04;79.46
40850;BME280;26571;41.610;25.380;2022-07-09T02:55:52;97862.94;;;21.09;78.58
40850;BME280;26571;41.610;25.380;2022-07-09T02:58:17;97861.56;;;21.07;79.17
40850;BME280;26571;41.610;25.380;2022-07-09T03:00:43;97860.00;;;21.11;77.99
40850;BME280;26571;41.610;25.380;2022-07-09T03:03:08;97852.78;;;21.11;77.70
40850;BME280;26571;41.610;25.380;2022-07-09T03:05:34;97847.38;;;21.06;78.52
40850;BME280;26571;41.610;25.380;2022-07-09T03:08:00;97848.06;;;21.19;77.88
40850;BME280;26571;41.610;25.380;2022-07-09T03:10:26;97858.00;;;21.23;77.99
40850;BME280;26571;41.610;25.380;2022-07-09T03:12:52;97854.34;;;21.29;79.07
40850;BME280;26571;41.610;25.380;2022-07-09T03:15:17;97863.78;;;21.32;77.22
40850;BME280;26571;41.610;25.380;2022-07-09T03:17:43;97857.63;;;21.31;77.20
40850;BME280;26571;41.610;25.380;2022-07-09T03:20:09;97873.41;;;21.33;77.51
40850;BME280;26571;41.610;25.380;2022-07-09T03:22:36;97864.41;;;21.39;76.04
40850;BME280;26571;41.610;25.380;2022-07-09T03:25:02;97870.31;;;21.41;75.54
40850;BME280;26571;41.610;25.380;2022-07-09T03:27:28;97860.41;;;21.41;75.28
40850;BME280;26571;41.610;25.380;2022-07-09T03:29:53;97868.81;;;21.50;75.14
40850;BME280;26571;41.610;25.380;2022-07-09T03:32:19;97868.06;;;21.55;74.62
40850;BME280;26571;41.610;25.380;2022-07-09T03:34:44;97875.91;;;21.61;74.19
40850;BME280;26571;41.610;25.380;2022-07-09T03:37:10;97842.03;;;21.50;75.05
40850;BME280;26571;41.610;25.380;2022-07-09T03:39:35;97868.44;;;21.63;74.94
40850;BME280;26571;41.610;25.380;2022-07-09T03:42:01;97874.91;;;21.67;73.81
40850;BME280;26571;41.610;25.380;2022-07-09T03:44:27;97880.25;;;21.67;71.77
40850;BME280;26571;41.610;25.380;2022-07-09T03:46:52;97880.25;;;21.67;70.58
40850;BME280;26571;41.610;25.380;2022-07-09T03:49:17;97880.81;;;21.70;69.22
40850;BME280;26571;41.610;25.380;2022-07-09T03:51:43;97886.41;;;21.68;70.25
40850;BME280;26571;41.610;25.380;2022-07-09T03:54:09;97883.50;;;21.70;70.73
40850;BME280;26571;41.610;25.380;2022-07-09T03:56:35;97877.63;;;21.73;70.82
40850;BME280;26571;41.610;25.380;2022-07-09T03:59:00;97879.56;;;21.77;71.61
40850;BME280;26571;41.610;25.380;2022-07-09T04:01:26;97891.06;;;21.78;71.67
40850;BME280;26571;41.610;25.380;2022-07-09T04:03:51;97889.50;;;21.82;70.97
40850;BME280;26571;41.610;25.380;2022-07-09T04:06:16;97894.59;;;21.78;69.11
40850;BME280;26571;41.610;25.380;2022-07-09T04:08:42;97893.81;;;21.83;69.52
40850;BME280;26571;41.610;25.380;2022-07-09T04:11:07;97892.50;;;21.85;69.69
40850;BME280;26571;41.610;25.380;2022-07-09T04:13:33;97895.44;;;21.84;69.78
40850;BME280;26571;41.610;25.380;2022-07-09T04:15:58;97897.13;;;21.90;68.42
40850;BME280;26571;41.610;25.380;2022-07-09T04:18:24;97896.84;;;21.91;69.15
40850;BME280;26571;41.610;25.380;2022-07-09T04:20:49;97870.44;;;21.73;66.94
40850;BME280;26571;41.610;25.380;2022-07-09T04:23:16;97898.47;;;21.92;67.12
40850;BME280;26571;41.610;25.380;2022-07-09T04:25:41;97899.31;;;21.93;66.83
40850;BME280;26571;41.610;25.380;2022-07-09T04:28:06;97866.81;;;21.62;66.93
40850;BME280;26571;41.610;25.380;2022-07-09T04:30:32;97903.81;;;21.92;67.35
40850;BME280;26571;41.610;25.380;2022-07-09T04:32:57;97902.75;;;21.88;67.34
40850;BME280;26571;41.610;25.380;2022-07-09T04:35:23;97919.69;;;21.94;67.49
40850;BME280;26571;41.610;25.380;2022-07-09T04:37:49;97913.75;;;21.92;67.40
40850;BME280;26571;41.610;25.380;2022-07-09T04:40:14;97914.38;;;21.99;66.07
40850;BME280;26571;41.610;25.380;2022-07-09T04:42:40;97913.84;;;22.02;66.20
40850;BME280;26571;41.610;25.380;2022-07-09T04:45:05;97911.75;;;22.04;65.96
40850;BME280;26571;41.610;25.380;2022-07-09T04:47:31;97910.41;;;22.07;65.32
40850;BME280;26571;41.610;25.380;2022-07-09T04:49:56;97915.63;;;22.13;66.32
40850;BME280;26571;41.610;25.380;2022-07-09T04:52:22;97914.84;;;22.18;68.57
40850;BME280;26571;41.610;25.380;2022-07-09T04:54:52;97914.59;;;22.19;69.08
40850;BME280;26571;41.610;25.380;2022-07-09T04:57:17;97874.16;;;21.99;68.40
40850;BME280;26571;41.610;25.380;2022-07-09T04:59:43;97904.47;;;22.27;66.80
40850;BME280;26571;41.610;25.380;2022-07-09T05:02:08;97897.50;;;22.26;67.14
40850;BME280;26571;41.610;25.380;2022-07-09T05:04:34;97908.75;;;22.28;65.71
40850;BME280;26571;41.610;25.380;2022-07-09T05:06:59;97897.78;;;22.29;64.79
40850;BME280;26571;41.610;25.380;2022-07-09T05:09:25;97859.06;;;22.15;66.40
40850;BME280;26571;41.610;25.380;2022-07-09T05:11:50;97899.50;;;22.40;66.39
40850;BME280;26571;41.610;25.380;2022-07-09T05:14:16;97894.44;;;22.44;67.27
40850;BME280;26571;41.610;25.380;2022-07-09T05:16:41;97894.97;;;22.46;66.96
40850;BME280;26571;41.610;25.380;2022-07-09T05:19:12;97868.44;;;22.17;65.85
40850;BME280;26571;41.610;25.380;2022-07-09T05:21:41;97903.06;;;22.51;64.82
40850;BME280;26571;41.610;25.380;2022-07-09T05:24:07;97901.44;;;22.50;65.18
40850;BME280;26571;41.610;25.380;2022-07-09T05:26:34;97905.19;;;22.49;63.84
40850;BME280;26571;41.610;25.380;2022-07-09T05:28:59;97873.91;;;22.28;64.34
40850;BME280;26571;41.610;25.380;2022-07-09T05:31:25;97901.44;;;22.50;64.81
40850;BME280;26571;41.610;25.380;2022-07-09T05:33:50;97894.22;;;22.51;64.67
40850;BME280;26571;41.610;25.380;2022-07-09T05:36:17;97884.63;;;22.28;63.65
40850;BME280;26571;41.610;25.380;2022-07-09T05:38:43;97867.44;;;22.24;62.68
40850;BME280;26571;41.610;25.380;2022-07-09T05:41:09;97904.31;;;22.38;62.50
40850;BME280;26571;41.610;25.380;2022-07-09T05:43:36;97902.44;;;22.39;62.33
40850;BME280;26571;41.610;25.380;2022-07-09T05:46:01;97899.19;;;22.37;62.41
40850;BME280;26571;41.610;25.380;2022-07-09T05:48:27;97904.56;;;22.37;61.91
40850;BME280;26571;41.610;25.380;2022-07-09T05:50:52;97906.47;;;22.41;61.47
40850;BME280;26571;41.610;25.380;2022-07-09T05:53:17;97904.34;;;22.43;61.86
40850;BME280;26571;41.610;25.380;2022-07-09T05:55:43;97900.34;;;22.46;61.87
40850;BME280;26571;41.610;25.380;2022-07-09T05:58:09;97908.38;;;22.46;62.33
40850;BME280;26571;41.610;25.380;2022-07-09T06:00:35;97910.53;;;22.44;61.48
40850;BME280;26571;41.610;25.380;2022-07-09T06:03:00;97907.81;;;22.39;62.29
40850;BME280;26571;41.610;25.380;2022-07-09T06:05:26;97905.56;;;22.31;61.62
40850;BME280;26571;41.610;25.380;2022-07-09T06:07:51;97905.53;;;22.26;61.57
40850;BME280;26571;41.610;25.380;2022-07-09T06:10:17;97903.34;;;22.23;62.64
40850;BME280;26571;41.610;25.380;2022-07-09T06:12:42;97903.31;;;22.17;62.12
40850;BME280;26571;41.610;25.380;2022-07-09T06:15:10;97895.59;;;21.99;62.05
40850;BME280;26571;41.610;25.380;2022-07-09T06:17:35;97905.47;;;22.21;62.37
40850;BME280;26571;41.610;25.380;2022-07-09T06:20:01;97910.34;;;22.24;62.22
40850;BME280;26571;41.610;25.380;2022-07-09T06:22:26;97908.72;;;22.23;62.00
40850;BME280;26571;41.610;25.380;2022-07-09T06:24:52;97875.09;;;21.88;61.78
40850;BME280;26571;41.610;25.380;2022-07-09T06:27:17;97922.59;;;22.14;61.82
40850;BME280;26571;41.610;25.380;2022-07-09T06:29:43;97923.81;;;22.07;61.23
40850;BME280;26571;41.610;25.380;2022-07-09T06:32:08;97924.97;;;21.89;61.92
40850;BME280;26571;41.610;25.380;2022-07-09T06:34:34;97932.44;;;21.87;62.56
40850;BME280;26571;41.610;25.380;2022-07-09T06:36:59;97924.94;;;21.84;63.70
40850;BME280;26571;41.610;25.380;2022-07-09T06:39:25;97941.97;;;21.78;64.05
40850;BME280;26571;41.610;25.380;2022-07-09T06:42:09;97936.50;;;21.67;65.59
40850;BME280;26571;41.610;25.380;2022-07-09T06:44:34;97936.16;;;21.59;66.44
40850;BME280;26571;41.610;25.380;2022-07-09T06:47:00;97942.31;;;21.59;67.51
40850;BME280;26571;41.610;25.380;2022-07-09T06:49:25;97813.88;;;20.82;68.27
40850;BME280;26571;41.610;25.380;2022-07-09T06:51:51;97942.81;;;21.56;69.50
40850;BME280;26571;41.610;25.380;2022-07-09T06:54:16;97940.66;;;21.53;69.74
40850;BME280;26571;41.610;25.380;2022-07-09T06:56:42;97950.22;;;21.49;70.66
40850;BME280;26571;41.610;25.380;2022-07-09T06:59:07;97957.81;;;21.35;71.77
40850;BME280;26571;41.610;25.380;2022-07-09T07:01:32;97953.91;;;21.26;72.20
40850;BME280;26571;41.610;25.380;2022-07-09T07:03:58;97949.72;;;21.13;73.29
40850;BME280;26571;41.610;25.380;2022-07-09T07:06:23;97958.78;;;21.12;73.55
40850;BME280;26571;41.610;25.380;2022-07-09T07:08:49;97958.72;;;21.07;73.37
40850;BME280;26571;41.610;25.380;2022-07-09T07:11:14;97950.53;;;20.97;74.18
40850;BME280;26571;41.610;25.380;2022-07-09T07:13:39;97943.25;;;20.92;75.94
40850;BME280;26571;41.610;25.380;2022-07-09T07:16:05;97954.03;;;20.81;76.77
40850;BME280;26571;41.610;25.380;2022-07-09T07:18:31;97959.31;;;20.76;78.21
40850;BME280;26571;41.610;25.380;2022-07-09T07:20:56;97955.50;;;20.72;77.54
40850;BME280;26571;41.610;25.380;2022-07-09T07:23:22;97956.56;;;20.71;78.13
40850;BME280;26571;41.610;25.380;2022-07-09T07:25:47;97950.72;;;20.74;78.74
40850;BME280;26571;41.610;25.380;2022-07-09T07:28:13;97949.91;;;20.73;78.79
40850;BME280;26571;41.610;25.380;2022-07-09T07:30:38;97918.94;;;20.60;79.39
40850;BME280;26571;41.610;25.380;2022-07-09T07:33:04;97956.25;;;20.84;79.05
40850;BME280;26571;41.610;25.380;2022-07-09T07:35:29;97963.44;;;20.83;79.64
40850;BME280;26571;41.610;25.380;2022-07-09T07:37:55;97961.59;;;20.84;79.59
40850;BME280;26571;41.610;25.380;2022-07-09T07:40:22;97957.84;;;20.85;79.50
40850;BME280;26571;41.610;25.380;2022-07-09T07:42:48;97969.38;;;20.85;78.99
40850;BME280;26571;41.610;25.380;2022-07-09T07:45:13;97977.66;;;20.84;79.19
40850;BME280;26571;41.610;25.380;2022-07-09T07:47:38;97988.81;;;20.81;79.65
40850;BME280;26571;41.610;25.380;2022-07-09T07:50:04;97966.75;;;20.57;79.78
40850;BME280;26571;41.610;25.380;2022-07-09T07:52:31;97988.25;;;20.79;79.89
40850;BME280;26571;41.610;25.380;2022-07-09T07:54:56;97951.59;;;20.62;82.15
40850;BME280;26571;41.610;25.380;2022-07-09T07:57:22;97977.31;;;20.80;83.06
40850;BME280;26571;41.610;25.380;2022-07-09T07:59:47;97969.53;;;20.79;84.18
40850;BME280;26571;41.610;25.380;2022-07-09T08:02:13;97965.63;;;20.70;84.27
40850;BME280;26571;41.610;25.380;2022-07-09T08:04:38;97970.56;;;20.78;84.92
40850;BME280;26571;41.610;25.380;2022-07-09T08:07:04;97971.88;;;20.75;85.26
40850;BME280;26571;41.610;25.380;2022-07-09T08:09:29;97968.31;;;20.70;84.81
40850;BME280;26571;41.610;25.380;2022-07-09T08:11:55;97980.63;;;20.71;85.16
40850;BME280;26571;41.610;25.380;2022-07-09T08:14:21;97841.94;;;19.95;85.43
40850;BME280;26571;41.610;25.380;2022-07-09T08:16:46;97964.91;;;20.74;85.78
40850;BME280;26571;41.610;25.380;2022-07-09T08:19:12;97930.63;;;20.54;85.41
40850;BME280;26571;41.610;25.380;2022-07-09T08:21:39;97962.00;;;20.76;85.88
40850;BME280;26571;41.610;25.380;2022-07-09T08:24:05;97953.31;;;20.69;86.32
40850;BME280;26571;41.610;25.380;2022-07-09T08:26:31;97975.19;;;20.82;85.82
40850;BME280;26571;41.610;25.380;2022-07-09T08:28:57;97966.53;;;20.75;86.26
40850;BME280;26571;41.610;25.380;2022-07-09T08:31:23;97969.22;;;20.75;86.84
40850;BME280;26571;41.610;25.380;2022-07-09T08:33:49;97972.13;;;20.74;87.53
40850;BME280;26571;41.610;25.380;2022-07-09T08:36:14;97973.75;;;20.75;87.73
40850;BME280;26571;41.610;25.380;2022-07-09T08:38:40;97968.31;;;20.70;87.06
40850;BME280;26571;41.610;25.380;2022-07-09T08:41:06;97974.72;;;20.69;87.22
40850;BME280;26571;41.610;25.380;2022-07-09T08:43:33;97982.41;;;20.65;87.54
40850;BME280;26571;41.610;25.380;2022-07-09T08:45:59;97944.81;;;20.43;87.97
40850;BME280;26571;41.610;25.380;2022-07-09T08:48:25;97973.25;;;20.61;88.49
40850;BME280;26571;41.610;25.380;2022-07-09T08:50:51;97973.25;;;20.61;89.19
40850;BME280;26571;41.610;25.380;2022-07-09T08:53:17;97961.00;;;20.65;89.25
40850;BME280;26571;41.610;25.380;2022-07-09T08:55:44;97836.97;;;19.87;89.53
40850;BME280;26571;41.610;25.380;2022-07-09T08:58:13;97955.16;;;20.68;90.40
40850;BME280;26571;41.610;25.380;2022-07-09T09:00:40;97958.75;;;20.74;90.98
40850;BME280;26571;41.610;25.380;2022-07-09T09:03:06;97959.31;;;20.76;90.93
40850;BME280;26571;41.610;25.380;2022-07-09T09:05:32;97948.13;;;20.79;89.90
40850;BME280;26571;41.610;25.380;2022-07-09T09:07:58;97956.38;;;20.77;90.33
40850;BME280;26571;41.610;25.380;2022-07-09T09:10:26;97948.13;;;20.79;90.05
40850;BME280;26571;41.610;25.380;2022-07-09T09:12:58;97947.28;;;20.78;89.28
40850;BME280;26571;41.610;25.380;2022-07-09T09:15:25;97956.97;;;20.79;89.98
40850;BME280;26571;41.610;25.380;2022-07-09T09:17:51;97925.75;;;20.68;90.27
40850;BME280;26571;41.610;25.380;2022-07-09T09:20:17;97946.81;;;20.81;89.69
40850;BME280;26571;41.610;25.380;2022-07-09T09:22:50;97920.31;;;20.63;90.03
40850;BME280;26571;41.610;25.380;2022-07-09T09:25:19;97912.47;;;20.56;90.29
40850;BME280;26571;41.610;25.380;2022-07-09T09:27:56;97961.59;;;20.84;89.81
40850;BME280;26571;41.610;25.380;2022-07-09T09:30:22;97957.53;;;20.81;89.11
40850;BME280;26571;41.610;25.380;2022-07-09T09:32:56;97967.41;;;20.81;88.88
40850;BME280;26571;41.610;25.380;2022-07-09T09:35:24;97970.66;;;20.83;88.84
40850;BME280;26571;41.610;25.380;2022-07-09T09:37:51;97976.50;;;20.80;88.44
40850;BME280;26571;41.610;25.380;2022-07-09T09:40:17;97958.59;;;20.80;89.53
40850;BME280;26571;41.610;25.380;2022-07-09T09:42:44;97971.88;;;20.92;89.97
40850;BME280;26571;41.610;25.380;2022-07-09T09:45:13;97944.38;;;20.63;90.26
40850;BME280;26571;41.610;25.380;2022-07-09T09:47:48;97969.84;;;20.99;91.25
40850;BME280;26571;41.610;25.380;2022-07-09T09:50:22;97866.00;;;20.29;90.71
40850;BME280;26571;41.610;25.380;2022-07-09T09:52:52;97975.69;;;20.96;89.93
40850;BME280;26571;41.610;25.380;2022-07-09T09:55:19;97962.69;;;20.88;89.91
40850;BME280;26571;41.610;25.380;2022-07-09T09:57:45;97956.78;;;20.86;89.83
40850;BME280;26571;41.610;25.380;2022-07-09T10:00:12;97976.16;;;20.93;89.85
40850;BME280;26571;41.610;25.380;2022-07-09T10:02:43;97986.31;;;20.91;89.41
40850;BME280;26571;41.610;25.380;2022-07-09T10:05:09;97983.63;;;20.91;89.29
40850;BME280;26571;41.610;25.380;2022-07-09T10:07:34;97983.63;;;20.91;89.86
40850;BME280;26571;41.610;25.380;2022-07-09T10:10:00;97980.47;;;20.94;89.64
40850;BME280;26571;41.610;25.380;2022-07-09T10:12:32;97984.78;;;20.95;89.65
40850;BME280;26571;41.610;25.380;2022-07-09T10:14:58;97988.50;;;20.94;90.15
40850;BME280;26571;41.610;25.380;2022-07-09T10:17:25;97879.84;;;20.26;90.43
40850;BME280;26571;41.610;25.380;2022-07-09T10:19:57;97978.75;;;20.88;91.14
40850;BME280;26571;41.610;25.380;2022-07-09T10:22:45;97972.28;;;20.84;91.89
40850;BME280;26571;41.610;25.380;2022-07-09T10:25:22;97968.56;;;20.85;92.21
40850;BME280;26571;41.610;25.380;2022-07-09T10:27:49;97963.84;;;20.75;92.33
40850;BME280;26571;41.610;25.380;2022-07-09T10:30:27;97966.94;;;20.84;92.97
40850;BME280;26571;41.610;25.380;2022-07-09T10:33:12;97959.00;;;20.89;93.53
40850;BME280;26571;41.610;25.380;2022-07-09T10:35:42;97952.66;;;20.95;93.52
40850;BME280;26571;41.610;25.380;2022-07-09T10:38:08;97962.38;;;21.01;93.11
40850;BME280;26571;41.610;25.380;2022-07-09T10:40:45;97966.44;;;21.04;93.19
40850;BME280;26571;41.610;25.380;2022-07-09T10:43:12;97968.13;;;21.10;92.97
40850;BME280;26571;41.610;25.380;2022-07-09T10:45:39;97972.25;;;21.17;91.81
40850;BME280;26571;41.610;25.380;2022-07-09T10:48:07;97962.94;;;21.20;92.16
40850;BME280;26571;41.610;25.380;2022-07-09T10:50:45;97969.81;;;21.33;92.81
40850;BME280;26571;41.610;25.380;2022-07-09T10:53:14;97975.81;;;21.40;92.98
40850;BME280;26571;41.610;25.380;2022-07-09T10:55:43;97957.75;;;21.52;93.24
40850;BME280;26571;41.610;25.380;2022-07-09T10:58:23;97939.72;;;21.64;93.66
40850;BME280;26571;41.610;25.380;2022-07-09T11:00:59;97944.06;;;21.71;92.13
40850;BME280;26571;41.610;25.380;2022-07-09T11:03:29;97940.63;;;21.75;92.32
40850;BME280;26571;41.610;25.380;2022-07-09T11:05:55;97926.75;;;21.56;91.91
40850;BME280;26571;41.610;25.380;2022-07-09T11:08:21;97887.13;;;21.58;90.53
40850;BME280;26571;41.610;25.380;2022-07-09T11:10:47;97897.44;;;21.72;90.22
40850;BME280;26571;41.610;25.380;2022-07-09T11:13:12;97930.13;;;21.96;89.53
40850;BME280;26571;41.610;25.380;2022-07-09T11:15:38;97932.38;;;22.04;89.38
40850;BME280;26571;41.610;25.380;2022-07-09T11:20:40;97922.69;;;22.25;89.26
40850;BME280;26571;41.610;25.380;2022-07-09T11:23:08;97916.34;;;22.36;89.37
40850;BME280;26571;41.610;25.380;2022-07-09T11:25:34;97921.13;;;22.61;92.87
40850;BME280;26571;41.610;25.380;2022-07-09T11:28:00;97916.69;;;22.82;90.98
40850;BME280;26571;41.610;25.380;2022-07-09T11:30:27;97896.91;;;22.88;89.28
40850;BME280;26571;41.610;25.380;2022-07-09T11:32:53;97908.94;;;23.23;91.05
40850;BME280;26571;41.610;25.380;2022-07-09T11:35:34;97917.09;;;23.43;88.58
40850;BME280;26571;41.610;25.380;2022-07-09T11:38:01;97901.56;;;23.60;88.86
40850;BME280;26571;41.610;25.380;2022-07-09T11:40:28;97882.75;;;23.60;85.18
40850;BME280;26571;41.610;25.380;2022-07-09T11:42:54;97867.25;;;23.67;83.75
40850;BME280;26571;41.610;25.380;2022-07-09T11:45:27;97899.84;;;24.07;85.02
40850;BME280;26571;41.610;25.380;2022-07-09T11:48:03;97897.44;;;24.25;83.31
40850;BME280;26571;41.610;25.380;2022-07-09T11:50:29;97873.78;;;24.28;82.00
40850;BME280;26571;41.610;25.380;2022-07-09T11:52:55;97891.56;;;24.49;79.35
40850;BME280;26571;41.610;25.380;2022-07-09T11:55:28;97888.59;;;24.61;79.14
40850;BME280;26571;41.610;25.380;2022-07-09T11:58:06;97891.56;;;24.69;76.98
40850;BME280;26571;41.610;25.380;2022-07-09T12:00:39;97870.03;;;24.69;77.18
40850;BME280;26571;41.610;25.380;2022-07-09T12:03:05;97883.19;;;24.91;76.92
40850;BME280;26571;41.610;25.380;2022-07-09T12:05:33;97874.53;;;25.10;74.90
40850;BME280;26571;41.610;25.380;2022-07-09T12:08:05;97872.59;;;25.25;75.68
40850;BME280;26571;41.610;25.380;2022-07-09T12:10:34;97872.56;;;25.36;71.87
40850;BME280;26571;41.610;25.380;2022-07-09T12:13:01;97868.50;;;25.43;69.67
40850;BME280;26571;41.610;25.380;2022-07-09T12:15:27;97862.56;;;25.46;69.58
40850;BME280;26571;41.610;25.380;2022-07-09T12:17:57;97869.28;;;25.49;69.26
40850;BME280;26571;41.610;25.380;2022-07-09T12:20:24;97859.56;;;25.53;69.86
40850;BME280;26571;41.610;25.380;2022-07-09T12:22:51;97862.25;;;25.53;68.51
40850;BME280;26571;41.610;25.380;2022-07-09T12:25:17;97860.09;;;25.55;69.55
40850;BME280;26571;41.610;25.380;2022-07-09T12:27:43;97858.16;;;25.61;70.16
40850;BME280;26571;41.610;25.380;2022-07-09T12:30:09;97857.34;;;25.60;68.11
40850;BME280;26571;41.610;25.380;2022-07-09T12:32:34;97854.63;;;25.65;69.10
40850;BME280;26571;41.610;25.380;2022-07-09T12:35:01;97847.16;;;25.57;63.28
40850;BME280;26571;41.610;25.380;2022-07-09T12:37:26;97846.53;;;25.65;65.59
40850;BME280;26571;41.610;25.380;2022-07-09T12:39:52;97850.34;;;25.64;65.26
40850;BME280;26571;41.610;25.380;2022-07-09T12:42:19;97844.41;;;25.67;65.09
40850;BME280;26571;41.610;25.380;2022-07-09T12:44:45;97841.69;;;25.67;64.31
40850;BME280;26571;41.610;25.380;2022-07-09T12:47:10;97841.69;;;25.67;64.52
40850;BME280;26571;41.610;25.380;2022-07-09T12:49:36;97843.81;;;25.70;63.91